sensor_id;sensor_type;location;lat;lon;timestamp;pressure;altitude;pressure_sealevel;temperature;humidity
59009;BME280;44794;42.652;23.318;2023-08-08T00:02:14;94330.50;;;15.10;100.00
59009;BME280;44794;42.652;23.318;2023-08-08T00:04:40;94333.69;;;15.04;100.00
59009;BME280;44794;42.652;23.318;2023-08-08T00:07:05;94335.63;;;15.02;100.00
59009;BME280;44794;42.652;23.318;2023-08-08T00:09:31;94347.91;;;14.92;100.00
59009;BME280;44794;42.652;23.318;2023-08-08T00:11:57;94362.09;;;14.90;100.00
59009;BME280;44794;42.652;23.318;2023-08-08T00:14:23;94358.25;;;14.94;100.00
59009;BME280;44794;42.652;23.318;2023-08-08T00:16:48;94357.69;;;14.90;100.00
59009;BME280;44794;42.652;23.318;2023-08-08T00:19:14;94355.53;;;14.86;100.00
59009;BME280;44794;42.652;23.318;2023-08-08T00:21:40;94354.97;;;14.82;100.00
59009;BME280;44794;42.652;23.318;2023-08-08T00:24:05;94354.13;;;14.82;100.00
59009;BME280;44794;42.652;23.318;2023-08-08T00:26:31;94353.03;;;14.84;100.00
59009;BME280;44794;42.652;23.318;2023-08-08T00:28:56;94363.91;;;14.89;100.00
59009;BME280;44794;42.652;23.318;2023-08-08T00:31:22;94373.63;;;14.97;100.00
59009;BME280;44794;42.652;23.318;2023-08-08T00:33:47;94377.88;;;14.98;100.00
59009;BME280;44794;42.652;23.318;2023-08-08T00:36:12;94389.56;;;15.03;100.00
59009;BME280;44794;42.652;23.318;2023-08-08T00:38:38;94390.81;;;14.99;100.00
59009;BME280;44794;42.652;23.318;2023-08-08T00:41:03;94384.78;;;14.99;100.00
59009;BME280;44794;42.652;23.318;2023-08-08T00:43:30;94380.06;;;15.02;100.00
59009;BME280;44794;42.652;23.318;2023-08-08T00:45:56;94382.97;;;14.99;100.00
59009;BME280;44794;42.652;23.318;2023-08-08T00:48:22;94386.84;;;14.95;100.00
59009;BME280;44794;42.652;23.318;2023-08-08T00:50:48;94388.25;;;14.90;100.00
59009;BME280;44794;42.652;23.318;2023-08-08T00:53:15;94393.19;;;14.93;100.00
59009;BME280;44794;42.652;23.318;2023-08-08T00:55:42;94394.69;;;14.95;100.00
59009;BME280;44794;42.652;23.318;2023-08-08T00:58:07;94395.38;;;14.97;100.00
59009;BME280;44794;42.652;23.318;2023-08-08T01:00:33;94398.97;;;14.96;100.00
59009;BME280;44794;42.652;23.318;2023-08-08T01:02:58;94398.91;;;15.05;100.00
59009;BME280;44794;42.652;23.318;2023-08-08T01:05:24;94404.69;;;15.09;100.00
59009;BME280;44794;42.652;23.318;2023-08-08T01:08:04;94400.56;;;15.06;100.00
59009;BME280;44794;42.652;23.318;2023-08-08T01:10:41;94410.88;;;15.08;100.00
59009;BME280;44794;42.652;23.318;2023-08-08T01:13:33;94412.38;;;15.10;100.00
59009;BME280;44794;42.652;23.318;2023-08-08T01:15:59;94418.78;;;14.99;100.00
59009;BME280;44794;42.652;23.318;2023-08-08T01:18:25;94412.41;;;15.01;100.00
59009;BME280;44794;42.652;23.318;2023-08-08T01:20:53;94405.53;;;15.00;100.00
59009;BME280;44794;42.652;23.318;2023-08-08T01:23:24;94410.06;;;14.98;100.00
59009;BME280;44794;42.652;23.318;2023-08-08T01:25:51;94410.81;;;14.91;100.00
59009;BME280;44794;42.652;23.318;2023-08-08T01:28:21;94425.13;;;14.96;100.00
59009;BME280;44794;42.652;23.318;2023-08-08T01:30:47;94423.16;;;14.98;100.00
59009;BME280;44794;42.652;23.318;2023-08-08T01:33:13;94419.63;;;14.90;100.00
59009;BME280;44794;42.652;23.318;2023-08-08T01:35:43;94421.22;;;15.00;100.00
59009;BME280;44794;42.652;23.318;2023-08-08T01:38:17;94432.16;;;14.86;100.00
59009;BME280;44794;42.652;23.318;2023-08-08T01:40:45;94437.53;;;14.85;100.00
59009;BME280;44794;42.652;23.318;2023-08-08T01:43:11;94433.69;;;14.79;100.00
59009;BME280;44794;42.652;23.318;2023-08-08T01:45:38;94449.66;;;14.76;100.00
59009;BME280;44794;42.652;23.318;2023-08-08T01:48:08;94455.88;;;14.75;100.00
59009;BME280;44794;42.652;23.318;2023-08-08T01:50:35;94449.25;;;14.71;100.00
59009;BME280;44794;42.652;23.318;2023-08-08T01:53:01;94460.13;;;14.67;100.00
59009;BME280;44794;42.652;23.318;2023-08-08T01:55:27;94464.66;;;14.74;100.00
59009;BME280;44794;42.652;23.318;2023-08-08T01:57:52;94465.06;;;14.79;100.00
59009;BME280;44794;42.652;23.318;2023-08-08T02:00:18;94477.03;;;14.72;100.00
59009;BME280;44794;42.652;23.318;2023-08-08T02:02:43;94481.03;;;14.76;100.00
59009;BME280;44794;42.652;23.318;2023-08-08T02:05:09;94481.28;;;14.83;100.00
59009;BME280;44794;42.652;23.318;2023-08-08T02:07:34;94467.09;;;14.85;100.00
59009;BME280;44794;42.652;23.318;2023-08-08T02:10:00;94474.72;;;14.69;100.00
59009;BME280;44794;42.652;23.318;2023-08-08T02:12:25;94484.06;;;14.72;100.00
59009;BME280;44794;42.652;23.318;2023-08-08T02:14:51;94481.31;;;14.73;100.00
59009;BME280;44794;42.652;23.318;2023-08-08T02:17:16;94488.34;;;14.73;100.00
59009;BME280;44794;42.652;23.318;2023-08-08T02:19:41;94491.22;;;14.70;100.00
59009;BME280;44794;42.652;23.318;2023-08-08T02:22:07;94489.31;;;14.72;100.00
59009;BME280;44794;42.652;23.318;2023-08-08T02:24:32;94496.97;;;14.83;100.00
59009;BME280;44794;42.652;23.318;2023-08-08T02:26:58;94511.56;;;14.85;100.00
59009;BME280;44794;42.652;23.318;2023-08-08T02:29:23;94507.28;;;14.84;100.00
59009;BME280;44794;42.652;23.318;2023-08-08T02:31:48;94510.75;;;14.75;100.00
59009;BME280;44794;42.652;23.318;2023-08-08T02:34:14;94504.97;;;14.81;100.00
59009;BME280;44794;42.652;23.318;2023-08-08T02:36:39;94510.97;;;14.91;100.00
59009;BME280;44794;42.652;23.318;2023-08-08T02:39:05;94510.97;;;14.91;100.00
59009;BME280;44794;42.652;23.318;2023-08-08T02:41:30;94504.56;;;14.86;100.00
59009;BME280;44794;42.652;23.318;2023-08-08T02:43:56;94506.50;;;14.74;100.00
59009;BME280;44794;42.652;23.318;2023-08-08T02:46:21;94506.75;;;14.90;100.00
59009;BME280;44794;42.652;23.318;2023-08-08T02:48:46;94521.59;;;14.90;100.00
59009;BME280;44794;42.652;23.318;2023-08-08T02:51:12;94527.25;;;14.85;100.00
59009;BME280;44794;42.652;23.318;2023-08-08T02:53:37;94528.31;;;14.92;100.00
59009;BME280;44794;42.652;23.318;2023-08-08T02:56:03;94524.78;;;14.84;100.00
59009;BME280;44794;42.652;23.318;2023-08-08T02:58:28;94530.81;;;14.84;100.00
59009;BME280;44794;42.652;23.318;2023-08-08T03:00:53;94542.13;;;14.85;100.00
59009;BME280;44794;42.652;23.318;2023-08-08T03:03:19;94536.34;;;14.81;100.00
59009;BME280;44794;42.652;23.318;2023-08-08T03:05:45;94529.97;;;15.02;100.00
59009;BME280;44794;42.652;23.318;2023-08-08T03:08:11;94535.09;;;14.85;100.00
59009;BME280;44794;42.652;23.318;2023-08-08T03:10:37;94537.69;;;14.85;100.00
59009;BME280;44794;42.652;23.318;2023-08-08T03:13:03;94529.03;;;14.94;100.00
59009;BME280;44794;42.652;23.318;2023-08-08T03:15:29;94539.22;;;14.88;100.00
59009;BME280;44794;42.652;23.318;2023-08-08T03:17:55;94539.66;;;14.83;100.00
59009;BME280;44794;42.652;23.318;2023-08-08T03:20:21;94537.03;;;14.83;100.00
59009;BME280;44794;42.652;23.318;2023-08-08T03:22:46;94534.97;;;14.87;100.00
59009;BME280;44794;42.652;23.318;2023-08-08T03:25:11;94540.47;;;14.74;100.00
59009;BME280;44794;42.652;23.318;2023-08-08T03:27:37;94553.94;;;14.79;100.00
59009;BME280;44794;42.652;23.318;2023-08-08T03:30:02;94541.28;;;14.84;100.00
59009;BME280;44794;42.652;23.318;2023-08-08T03:32:28;94540.72;;;14.81;100.00
59009;BME280;44794;42.652;23.318;2023-08-08T03:34:53;94552.84;;;14.82;100.00
59009;BME280;44794;42.652;23.318;2023-08-08T03:37:19;94550.09;;;14.83;100.00
59009;BME280;44794;42.652;23.318;2023-08-08T03:39:44;94552.28;;;14.97;100.00
59009;BME280;44794;42.652;23.318;2023-08-08T03:42:10;94553.38;;;15.04;100.00
59009;BME280;44794;42.652;23.318;2023-08-08T03:44:35;94551.56;;;15.04;100.00
59009;BME280;44794;42.652;23.318;2023-08-08T03:47:00;94559.16;;;14.98;100.00
59009;BME280;44794;42.652;23.318;2023-08-08T03:49:26;94551.75;;;14.94;100.00
59009;BME280;44794;42.652;23.318;2023-08-08T03:51:51;94546.63;;;14.92;100.00
59009;BME280;44794;42.652;23.318;2023-08-08T03:54:18;94546.25;;;14.87;100.00
59009;BME280;44794;42.652;23.318;2023-08-08T03:56:43;94539.91;;;14.90;100.00
59009;BME280;44794;42.652;23.318;2023-08-08T03:59:08;94542.66;;;14.98;100.00
59009;BME280;44794;42.652;23.318;2023-08-08T04:01:35;94555.44;;;15.10;100.00
59009;BME280;44794;42.652;23.318;2023-08-08T04:04:01;94548.78;;;15.15;100.00
59009;BME280;44794;42.652;23.318;2023-08-08T04:06:26;94558.03;;;15.19;100.00
59009;BME280;44794;42.652;23.318;2023-08-08T04:08:51;94570.72;;;15.24;100.00
59009;BME280;44794;42.652;23.318;2023-08-08T04:11:17;94578.00;;;15.20;100.00
59009;BME280;44794;42.652;23.318;2023-08-08T04:13:42;94589.03;;;15.14;100.00
59009;BME280;44794;42.652;23.318;2023-08-08T04:16:08;94590.38;;;15.18;100.00
59009;BME280;44794;42.652;23.318;2023-08-08T04:18:33;94592.72;;;15.12;100.00
59009;BME280;44794;42.652;23.318;2023-08-08T04:20:59;94594.09;;;15.16;100.00
59009;BME280;44794;42.652;23.318;2023-08-08T04:23:24;94597.41;;;14.99;100.00
59009;BME280;44794;42.652;23.318;2023-08-08T04:25:51;94611.31;;;15.09;100.00
59009;BME280;44794;42.652;23.318;2023-08-08T04:28:17;94608.16;;;15.15;100.00
59009;BME280;44794;42.652;23.318;2023-08-08T04:30:42;94604.84;;;15.13;100.00
59009;BME280;44794;42.652;23.318;2023-08-08T04:33:08;94607.59;;;15.21;100.00
59009;BME280;44794;42.652;23.318;2023-08-08T04:35:33;94604.28;;;15.19;100.00
59009;BME280;44794;42.652;23.318;2023-08-08T04:37:58;94612.97;;;15.29;100.00
59009;BME280;44794;42.652;23.318;2023-08-08T04:40:24;94611.31;;;15.47;100.00
59009;BME280;44794;42.652;23.318;2023-08-08T04:42:51;94618.72;;;15.61;100.00
59009;BME280;44794;42.652;23.318;2023-08-08T04:45:16;94618.41;;;15.64;100.00
59009;BME280;44794;42.652;23.318;2023-08-08T04:47:42;94611.63;;;15.71;100.00
59009;BME280;44794;42.652;23.318;2023-08-08T04:50:08;94614.47;;;15.86;100.00
59009;BME280;44794;42.652;23.318;2023-08-08T04:52:33;94615.34;;;16.04;100.00
59009;BME280;44794;42.652;23.318;2023-08-08T04:54:59;94619.50;;;15.97;100.00
59009;BME280;44794;42.652;23.318;2023-08-08T04:57:24;94625.44;;;15.99;100.00
59009;BME280;44794;42.652;23.318;2023-08-08T04:59:49;94635.03;;;15.81;100.00
59009;BME280;44794;42.652;23.318;2023-08-08T05:02:15;94633.53;;;15.70;100.00
59009;BME280;44794;42.652;23.318;2023-08-08T05:04:41;94643.66;;;15.55;100.00
59009;BME280;44794;42.652;23.318;2023-08-08T05:07:07;94649.03;;;15.54;100.00
59009;BME280;44794;42.652;23.318;2023-08-08T05:09:32;94653.28;;;15.64;100.00
59009;BME280;44794;42.652;23.318;2023-08-08T05:11:58;94657.53;;;15.75;100.00
59009;BME280;44794;42.652;23.318;2023-08-08T05:14:23;94680.72;;;15.96;100.00
59009;BME280;44794;42.652;23.318;2023-08-08T05:16:49;94682.47;;;16.15;100.00
59009;BME280;44794;42.652;23.318;2023-08-08T05:19:14;94683.13;;;16.53;100.00
59009;BME280;44794;42.652;23.318;2023-08-08T05:21:39;94698.56;;;16.83;99.64
59009;BME280;44794;42.652;23.318;2023-08-08T05:24:05;94696.78;;;17.01;97.71
59009;BME280;44794;42.652;23.318;2023-08-08T05:26:30;94692.81;;;16.97;97.18
59009;BME280;44794;42.652;23.318;2023-08-08T05:28:56;94695.19;;;16.46;97.46
59009;BME280;44794;42.652;23.318;2023-08-08T05:31:21;94703.31;;;16.97;96.11
59009;BME280;44794;42.652;23.318;2023-08-08T05:33:48;94716.84;;;17.54;91.04
59009;BME280;44794;42.652;23.318;2023-08-08T05:36:14;94733.47;;;18.48;84.34
59009;BME280;44794;42.652;23.318;2023-08-08T05:38:39;94744.22;;;19.53;77.09
59009;BME280;44794;42.652;23.318;2023-08-08T05:41:06;94762.38;;;20.27;71.37
59009;BME280;44794;42.652;23.318;2023-08-08T05:43:31;94756.59;;;20.32;70.43
59009;BME280;44794;42.652;23.318;2023-08-08T05:45:57;94768.31;;;19.97;71.31
59009;BME280;44794;42.652;23.318;2023-08-08T05:48:23;94765.41;;;20.86;67.31
59009;BME280;44794;42.652;23.318;2023-08-08T05:50:49;94774.13;;;21.33;63.55
59009;BME280;44794;42.652;23.318;2023-08-08T05:53:14;94769.63;;;21.11;63.46
59009;BME280;44794;42.652;23.318;2023-08-08T05:55:43;94774.22;;;19.91;67.66
59009;BME280;44794;42.652;23.318;2023-08-08T05:58:08;94760.31;;;19.42;71.51
59009;BME280;44794;42.652;23.318;2023-08-08T06:00:34;94764.50;;;18.44;77.05
59009;BME280;44794;42.652;23.318;2023-08-08T06:03:00;94770.84;;;17.74;85.12
59009;BME280;44794;42.652;23.318;2023-08-08T06:05:25;94768.91;;;17.58;87.97
59009;BME280;44794;42.652;23.318;2023-08-08T06:07:51;94767.88;;;17.69;87.49
59009;BME280;44794;42.652;23.318;2023-08-08T06:10:16;94758.94;;;17.44;86.85
59009;BME280;44794;42.652;23.318;2023-08-08T06:12:42;94761.78;;;16.89;91.44
59009;BME280;44794;42.652;23.318;2023-08-08T06:15:09;94755.41;;;16.65;94.24
59009;BME280;44794;42.652;23.318;2023-08-08T06:17:34;94757.19;;;16.91;92.00
59009;BME280;44794;42.652;23.318;2023-08-08T06:20:00;94767.84;;;18.80;82.29
59009;BME280;44794;42.652;23.318;2023-08-08T06:22:25;94781.19;;;20.16;69.67
59009;BME280;44794;42.652;23.318;2023-08-08T06:24:51;94780.34;;;21.10;64.11
59009;BME280;44794;42.652;23.318;2023-08-08T06:27:17;94786.66;;;22.73;55.84
59009;BME280;44794;42.652;23.318;2023-08-08T06:29:42;94796.94;;;23.34;51.50
59009;BME280;44794;42.652;23.318;2023-08-08T06:32:08;94800.19;;;22.78;50.50
59009;BME280;44794;42.652;23.318;2023-08-08T06:34:33;94787.84;;;22.70;50.52
59009;BME280;44794;42.652;23.318;2023-08-08T06:36:58;94795.44;;;23.46;48.49
59009;BME280;44794;42.652;23.318;2023-08-08T06:39:24;94777.31;;;22.48;50.66
59009;BME280;44794;42.652;23.318;2023-08-08T06:41:50;94779.59;;;21.62;53.96
59009;BME280;44794;42.652;23.318;2023-08-08T06:44:15;94775.81;;;22.97;50.14
59009;BME280;44794;42.652;23.318;2023-08-08T06:46:41;94791.34;;;24.34;47.96
59009;BME280;44794;42.652;23.318;2023-08-08T06:49:06;94789.50;;;23.58;46.41
59009;BME280;44794;42.652;23.318;2023-08-08T06:51:32;94786.72;;;22.65;50.09
59009;BME280;44794;42.652;23.318;2023-08-08T06:53:57;94781.97;;;21.57;53.25
59009;BME280;44794;42.652;23.318;2023-08-08T06:56:23;94783.94;;;19.83;60.13
59009;BME280;44794;42.652;23.318;2023-08-08T06:58:48;94768.72;;;18.96;59.08
59009;BME280;44794;42.652;23.318;2023-08-08T07:01:14;94787.91;;;19.87;55.79
59009;BME280;44794;42.652;23.318;2023-08-08T07:03:39;94776.00;;;19.43;56.93
59009;BME280;44794;42.652;23.318;2023-08-08T07:06:05;94791.56;;;20.34;53.33
59009;BME280;44794;42.652;23.318;2023-08-08T07:08:31;94789.63;;;21.36;51.86
59009;BME280;44794;42.652;23.318;2023-08-08T07:10:57;94791.75;;;21.10;52.25
59009;BME280;44794;42.652;23.318;2023-08-08T07:13:23;94787.56;;;22.06;49.78
59009;BME280;44794;42.652;23.318;2023-08-08T07:15:49;94799.19;;;21.97;47.63
59009;BME280;44794;42.652;23.318;2023-08-08T07:18:20;94798.03;;;21.39;49.55
59009;BME280;44794;42.652;23.318;2023-08-08T07:20:45;94801.41;;;21.64;48.29
59009;BME280;44794;42.652;23.318;2023-08-08T07:23:11;94795.19;;;22.46;45.86
59009;BME280;44794;42.652;23.318;2023-08-08T07:25:36;94801.31;;;21.49;48.46
59009;BME280;44794;42.652;23.318;2023-08-08T07:28:01;94784.38;;;21.66;47.87
59009;BME280;44794;42.652;23.318;2023-08-08T07:30:27;94791.03;;;21.24;48.70
59009;BME280;44794;42.652;23.318;2023-08-08T07:32:53;94801.47;;;21.48;46.53
59009;BME280;44794;42.652;23.318;2023-08-08T07:35:18;94813.34;;;21.60;45.91
59009;BME280;44794;42.652;23.318;2023-08-08T07:37:43;94819.16;;;21.78;45.96
59009;BME280;44794;42.652;23.318;2023-08-08T07:40:16;94808.66;;;20.69;48.34
59009;BME280;44794;42.652;23.318;2023-08-08T07:42:49;94793.72;;;21.08;48.44
59009;BME280;44794;42.652;23.318;2023-08-08T07:45:15;94805.25;;;22.06;46.34
59009;BME280;44794;42.652;23.318;2023-08-08T07:47:41;94795.19;;;20.25;49.84
59009;BME280;44794;42.652;23.318;2023-08-08T07:50:07;94777.22;;;19.88;51.62
59009;BME280;44794;42.652;23.318;2023-08-08T07:52:36;94780.31;;;18.78;55.68
59009;BME280;44794;42.652;23.318;2023-08-08T07:55:03;94774.72;;;18.47;56.47
59009;BME280;44794;42.652;23.318;2023-08-08T07:57:29;94769.38;;;18.14;60.27
59009;BME280;44794;42.652;23.318;2023-08-08T08:00:00;94758.88;;;18.14;59.71
59009;BME280;44794;42.652;23.318;2023-08-08T08:02:32;94773.09;;;17.86;61.36
59009;BME280;44794;42.652;23.318;2023-08-08T08:04:57;94777.19;;;18.06;62.08
59009;BME280;44794;42.652;23.318;2023-08-08T08:07:22;94772.69;;;18.16;61.08
59009;BME280;44794;42.652;23.318;2023-08-08T08:09:48;94765.22;;;17.86;62.09
59009;BME280;44794;42.652;23.318;2023-08-08T08:12:14;94767.56;;;18.32;62.60
59009;BME280;44794;42.652;23.318;2023-08-08T08:14:40;94771.09;;;18.74;60.99
59009;BME280;44794;42.652;23.318;2023-08-08T08:17:05;94764.97;;;18.40;62.04
59009;BME280;44794;42.652;23.318;2023-08-08T08:19:30;94770.63;;;18.86;62.50
59009;BME280;44794;42.652;23.318;2023-08-08T08:21:56;94766.03;;;18.21;63.08
59009;BME280;44794;42.652;23.318;2023-08-08T08:24:21;94762.41;;;18.22;64.86
59009;BME280;44794;42.652;23.318;2023-08-08T08:26:48;94772.81;;;18.90;60.84
59009;BME280;44794;42.652;23.318;2023-08-08T08:29:14;94775.00;;;18.70;59.14
59009;BME280;44794;42.652;23.318;2023-08-08T08:31:39;94777.84;;;18.76;57.56
59009;BME280;44794;42.652;23.318;2023-08-08T08:34:04;94769.41;;;18.98;57.73
59009;BME280;44794;42.652;23.318;2023-08-08T08:36:30;94777.34;;;18.73;56.28
59009;BME280;44794;42.652;23.318;2023-08-08T08:38:55;94778.06;;;18.90;57.25
59009;BME280;44794;42.652;23.318;2023-08-08T08:41:25;94766.44;;;19.01;56.93
59009;BME280;44794;42.652;23.318;2023-08-08T08:43:51;94772.19;;;19.04;57.00
59009;BME280;44794;42.652;23.318;2023-08-08T08:46:20;94759.06;;;18.38;60.50
59009;BME280;44794;42.652;23.318;2023-08-08T08:48:48;94769.00;;;18.52;61.41
59009;BME280;44794;42.652;23.318;2023-08-08T08:51:14;94766.72;;;18.31;63.32
59009;BME280;44794;42.652;23.318;2023-08-08T08:53:41;94780.34;;;18.52;62.54
59009;BME280;44794;42.652;23.318;2023-08-08T08:56:14;94773.44;;;18.84;61.81
59009;BME280;44794;42.652;23.318;2023-08-08T08:58:40;94764.47;;;19.03;60.90
59009;BME280;44794;42.652;23.318;2023-08-08T09:01:07;94767.97;;;19.11;59.66
59009;BME280;44794;42.652;23.318;2023-08-08T09:03:33;94777.06;;;19.17;58.25
59009;BME280;44794;42.652;23.318;2023-08-08T09:06:00;94772.31;;;18.87;58.97
59009;BME280;44794;42.652;23.318;2023-08-08T09:08:26;94765.31;;;18.70;59.42
59009;BME280;44794;42.652;23.318;2023-08-08T09:10:51;94778.41;;;19.29;58.69
59009;BME280;44794;42.652;23.318;2023-08-08T09:13:16;94782.19;;;19.26;56.74
59009;BME280;44794;42.652;23.318;2023-08-08T09:15:42;94777.50;;;19.77;54.66
59009;BME280;44794;42.652;23.318;2023-08-08T09:18:07;94779.25;;;19.29;55.79
59009;BME280;44794;42.652;23.318;2023-08-08T09:20:33;94781.22;;;19.27;55.27
59009;BME280;44794;42.652;23.318;2023-08-08T09:22:58;94782.72;;;19.04;56.56
59009;BME280;44794;42.652;23.318;2023-08-08T09:25:25;94772.34;;;19.44;56.22
59009;BME280;44794;42.652;23.318;2023-08-08T09:27:52;94789.16;;;19.51;53.52
59009;BME280;44794;42.652;23.318;2023-08-08T09:30:20;94779.50;;;19.10;55.74
59009;BME280;44794;42.652;23.318;2023-08-08T09:32:45;94783.88;;;19.02;55.97
59009;BME280;44794;42.652;23.318;2023-08-08T09:35:11;94791.88;;;18.84;58.79
59009;BME280;44794;42.652;23.318;2023-08-08T09:37:37;94789.41;;;19.24;58.01
59009;BME280;44794;42.652;23.318;2023-08-08T09:40:04;94790.31;;;19.57;57.42
59009;BME280;44794;42.652;23.318;2023-08-08T09:42:33;94800.81;;;19.98;55.23
59009;BME280;44794;42.652;23.318;2023-08-08T09:44:59;94797.56;;;19.62;55.33
59009;BME280;44794;42.652;23.318;2023-08-08T09:47:25;94799.69;;;19.02;56.90
59009;BME280;44794;42.652;23.318;2023-08-08T09:49:58;94787.66;;;18.41;57.27
59009;BME280;44794;42.652;23.318;2023-08-08T09:52:27;94794.97;;;18.80;57.93
59009;BME280;44794;42.652;23.318;2023-08-08T09:54:53;94806.63;;;18.78;56.28
59009;BME280;44794;42.652;23.318;2023-08-08T09:57:18;94792.91;;;18.66;56.61
59009;BME280;44794;42.652;23.318;2023-08-08T09:59:45;94792.88;;;18.91;55.80
59009;BME280;44794;42.652;23.318;2023-08-08T10:02:14;94796.41;;;18.75;56.82
59009;BME280;44794;42.652;23.318;2023-08-08T10:04:41;94798.03;;;19.01;54.96
59009;BME280;44794;42.652;23.318;2023-08-08T10:07:06;94787.88;;;18.73;54.99
59009;BME280;44794;42.652;23.318;2023-08-08T10:09:32;94793.81;;;18.83;55.56
59009;BME280;44794;42.652;23.318;2023-08-08T10:11:59;94806.09;;;18.99;54.83
59009;BME280;44794;42.652;23.318;2023-08-08T10:14:31;94804.59;;;19.38;52.69
59009;BME280;44794;42.652;23.318;2023-08-08T10:16:57;94801.00;;;19.47;51.32
59009;BME280;44794;42.652;23.318;2023-08-08T10:19:23;94795.44;;;19.66;52.50
59009;BME280;44794;42.652;23.318;2023-08-08T10:21:56;94799.47;;;20.10;51.60
59009;BME280;44794;42.652;23.318;2023-08-08T10:24:22;94806.72;;;20.47;50.30
59009;BME280;44794;42.652;23.318;2023-08-08T10:26:52;94796.31;;;20.78;48.62
59009;BME280;44794;42.652;23.318;2023-08-08T10:29:19;94799.88;;;21.01;48.79
59009;BME280;44794;42.652;23.318;2023-08-08T10:31:53;94796.44;;;21.30;48.12
59009;BME280;44794;42.652;23.318;2023-08-08T10:34:27;94795.00;;;21.58;48.92
59009;BME280;44794;42.652;23.318;2023-08-08T10:37:10;94800.66;;;21.47;47.40
59009;BME280;44794;42.652;23.318;2023-08-08T10:39:36;94793.16;;;21.67;46.90
59009;BME280;44794;42.652;23.318;2023-08-08T10:42:05;94777.38;;;21.43;47.50
59009;BME280;44794;42.652;23.318;2023-08-08T10:44:30;94782.19;;;21.39;46.73
59009;BME280;44794;42.652;23.318;2023-08-08T10:46:56;94782.50;;;20.44;49.04
59009;BME280;44794;42.652;23.318;2023-08-08T10:49:22;94774.09;;;20.40;50.46
59009;BME280;44794;42.652;23.318;2023-08-08T10:51:48;94770.25;;;19.71;51.74
59009;BME280;44794;42.652;23.318;2023-08-08T10:54:19;94751.91;;;19.30;52.95
59009;BME280;44794;42.652;23.318;2023-08-08T10:56:51;94756.56;;;19.52;52.69
59009;BME280;44794;42.652;23.318;2023-08-08T10:59:21;94771.13;;;19.96;53.24
59009;BME280;44794;42.652;23.318;2023-08-08T11:01:49;94778.38;;;20.02;51.16
59009;BME280;44794;42.652;23.318;2023-08-08T11:04:24;94760.91;;;20.09;51.91
59009;BME280;44794;42.652;23.318;2023-08-08T11:06:53;94765.38;;;20.16;50.97
59009;BME280;44794;42.652;23.318;2023-08-08T11:09:19;94764.53;;;20.08;51.41
59009;BME280;44794;42.652;23.318;2023-08-08T11:11:45;94772.56;;;19.90;51.50
59009;BME280;44794;42.652;23.318;2023-08-08T11:14:12;94765.50;;;20.15;52.01
59009;BME280;44794;42.652;23.318;2023-08-08T11:16:39;94758.59;;;20.14;51.04
59009;BME280;44794;42.652;23.318;2023-08-08T11:19:04;94764.22;;;20.11;51.83
59009;BME280;44794;42.652;23.318;2023-08-08T11:21:34;94766.97;;;19.93;51.95
59009;BME280;44794;42.652;23.318;2023-08-08T11:24:00;94755.47;;;20.18;51.47
59009;BME280;44794;42.652;23.318;2023-08-08T11:26:27;94749.69;;;20.07;51.50
59009;BME280;44794;42.652;23.318;2023-08-08T11:28:53;94761.41;;;19.96;51.83
59009;BME280;44794;42.652;23.318;2023-08-08T11:31:21;94757.41;;;19.84;51.12
59009;BME280;44794;42.652;23.318;2023-08-08T11:33:48;94759.59;;;19.97;51.38
59009;BME280;44794;42.652;23.318;2023-08-08T11:36:14;94764.84;;;20.21;49.99
59009;BME280;44794;42.652;23.318;2023-08-08T11:38:40;94756.28;;;20.19;51.01
59009;BME280;44794;42.652;23.318;2023-08-08T11:41:11;94744.91;;;20.10;51.48
59009;BME280;44794;42.652;23.318;2023-08-08T11:43:38;94748.69;;;20.24;51.19
59009;BME280;44794;42.652;23.318;2023-08-08T11:46:09;94736.56;;;20.61;51.28
59009;BME280;44794;42.652;23.318;2023-08-08T11:48:35;94746.31;;;20.76;49.54
59009;BME280;44794;42.652;23.318;2023-08-08T11:51:03;94741.16;;;20.83;49.06
59009;BME280;44794;42.652;23.318;2023-08-08T11:53:29;94752.22;;;20.70;49.72
59009;BME280;44794;42.652;23.318;2023-08-08T11:55:54;94743.97;;;20.81;49.44
59009;BME280;44794;42.652;23.318;2023-08-08T11:58:20;94735.53;;;20.94;49.10
59009;BME280;44794;42.652;23.318;2023-08-08T12:00:48;94741.19;;;21.13;49.18
59009;BME280;44794;42.652;23.318;2023-08-08T12:03:14;94733.84;;;21.31;48.57
59009;BME280;44794;42.652;23.318;2023-08-08T12:05:45;94740.38;;;21.43;48.32
59009;BME280;44794;42.652;23.318;2023-08-08T12:08:11;94737.53;;;21.22;49.18
59009;BME280;44794;42.652;23.318;2023-08-08T12:10:36;94728.63;;;20.85;48.89
59009;BME280;44794;42.652;23.318;2023-08-08T12:13:02;94719.75;;;20.78;49.44
59009;BME280;44794;42.652;23.318;2023-08-08T12:15:36;94720.91;;;20.75;49.28
59009;BME280;44794;42.652;23.318;2023-08-08T12:18:03;94732.09;;;20.77;48.62
59009;BME280;44794;42.652;23.318;2023-08-08T12:20:29;94719.22;;;20.82;49.33
59009;BME280;44794;42.652;23.318;2023-08-08T12:22:56;94713.59;;;20.85;49.36
59009;BME280;44794;42.652;23.318;2023-08-08T12:25:21;94722.69;;;21.13;49.01
59009;BME280;44794;42.652;23.318;2023-08-08T12:27:47;94705.25;;;21.34;48.83
59009;BME280;44794;42.652;23.318;2023-08-08T12:30:14;94713.47;;;21.39;47.26
59009;BME280;44794;42.652;23.318;2023-08-08T12:32:39;94705.91;;;21.67;48.77
59009;BME280;44794;42.652;23.318;2023-08-08T12:35:05;94722.81;;;21.80;46.75
59009;BME280;44794;42.652;23.318;2023-08-08T12:37:31;94703.63;;;22.00;47.85
59009;BME280;44794;42.652;23.318;2023-08-08T12:39:57;94712.19;;;22.02;46.04
59009;BME280;44794;42.652;23.318;2023-08-08T12:42:23;94718.09;;;21.68;46.90